Aviation Digital Data Service (ADDS)

Output produced by METARs form (1115 UTC 19 January 2019)
found at http://www.aviationweather.gov/metar/data/
 
SMJP 191100Z 26001KT 9999 BKN030 23/23 Q1004 NOSIG
TAF SMJP 191000Z 1912/2012 07010KT 9999 SCT015 TX30/1917Z TN22/2009Z 
     PROB40 
     TEMPO 1916/1921 3000 SHRA FEW015CB SCT025 
     BECMG 1923/2001 05005KT FEW008 SCT025 
     TEMPO 2008/2011 2000 BR SCT002